Sipesville, PA (15561)

9:14 PM EST on January 26, 2015 (GMT -0500)
Out in the country | Change Station
CLOSE
Current Station
Personal Weather Station
Location: Somerset, PA
Elevation: 2200 ft
Nearby Weather Stations
Active Advisory: Winter Weather Advisory Active Notice: Public Information Statement

Elev 2200 ft 40.07 °N, 79.17 °W | Updated 3 seconds ago

Overcast
Overcast
23.7 °F
Feels Like 24 °F
N
0.0
Wind Variable Wind from West
Gusts 0.0 mph

Today
High -- | Low -- °F
--% Chance of Precip.
Yesterday
High -- | Low -- °F
Precip. -- in
7:30 AM 5:27 PM
Waxing Crescent, 49% visible
Pressure 29.82 in
Visibility 4.0 miles
Clouds Mostly Cloudy 2000 ft
Overcast 3000 ft
Windchill 24 °F
Dew Point 22 °F
Humidity 93%
Rainfall 0.00 in
Snow Depth Not available.
UV 0 out of 12
Pollen .10 out of 12
Air Quality Not available.
Flu Activity Not available.
METAR KLBE 270145Z 01005KT 4SM -SN BKN020 OVC030 M04/M04 A2982

More Conditions Fewer Conditions

Pressure 29.82 in
Visibility 4.0 miles
Clouds Mostly Cloudy 2000 ft
Overcast 3000 ft
Windchill 24 °F
Dew Point 22 °F
Humidity 93%
Rainfall 0.00 in
Snow Depth Not available.
UV 0 out of 12
Pollen .10 out of 12
Air Quality Not available.
Flu Activity Not available.
METAR KLBE 270145Z 01005KT 4SM -SN BKN020 OVC030 M04/M04 A2982

More Conditions Fewer Conditions

Nowcast | as of 8:58 PM EST on January 26, 2015

Bands of snow...some heavy...will be across much of the region through 11 PM. The heaviest snow will be mainly west of a LaPorte...Harrisburg...Gettysburg line. The combination of cold temperatures and the heavy rate of snow accumulation will likely result in poor travel conditions. Persons traveling this evening should allow extra travel time and use caution.

×

10-Day Weather Forecast

Almanac

Astronomy

Jan. 26, 2015 Rise Set
Actual Time
Civil Twilight
Nautical Twilight
Astronomical Twilight
Moon
Length of Visible Light
Length of Day
Tomorrow will be .
, % of the Moon is Illuminated

Today's Extremes

State Highs State Lows

Community

WunderPhotos

Upload Photos

1,790,475 photos uploaded!

WunderBlogs® & News

Nearby

Air Quality

  Air Quality AQ Index Pollutant
Not available.

Snow Depth

Station Depth Elevation

Earthquake Activity

City Distance Mag. Time & Date
Minimum magnitude displayed is 2.5.

Coastal Water Temperatures

Place Temperature

Nearby Weather Stations